CheckWX is a tool to help pilots better visualize weather data.  It is not intended as a substitute for an official pre-flight weather briefing.

08:17:39 UTC

HELX METAR
Luxor International Airport
Luxor, Egypt
Current

1 hour ago

HELX 250700Z 01003KT CAVOK 26/09 Q1014 NOSIG
Observed
May-25 @ 07:00 UTC
Wind
  • 010° at 3 KTS
Visibility
10,000+ meters
Flight Rules
VFR
Cloud Levels
  • Clear skies
Temperature
26°C / 79°F
Dewpoint
C / 48°F
Humidity
34%
Altimeter
29.94" Hg
Pressure
1013.92 hPa
Previous

2 hours ago

HELX 250600Z 36004KT CAVOK 25/10 Q1014 NOSIG
Observed
May-25 @ 06:00 UTC
Wind
  • 360° at 4 KTS
Visibility
10,000+ meters
Flight Rules
VFR
Cloud Levels
  • Clear skies
Temperature
25°C / 77°F
Dewpoint
10°C / 50°F
Humidity
39%
Altimeter
29.94" Hg
Pressure
1013.92 hPa
Previous

3 hours ago

HELX 250500Z 33006KT CAVOK 24/09 Q1013 NOSIG
Observed
May-25 @ 05:00 UTC
Wind
  • 330° at 6 KTS
Visibility
10,000+ meters
Flight Rules
VFR
Cloud Levels
  • Clear skies
Temperature
24°C / 75°F
Dewpoint
C / 48°F
Humidity
39%
Altimeter
29.91" Hg
Pressure
1012.92 hPa